Tampa, Florida
Current Conditions -  °F | °C
As of 1:53 AM on Thursday 23 Oct 2014 (Local Time) from KTPA Reporting Station
Scattered Clouds Scattered Clouds  
Wind Chill: 19°   Ceiling: Unl
Heat Index: 19°   Visibility: 10mi
Dew Point: 14°   Wind: 8mph
Humidity: 73%   Direction: 50°NE
Pressure: 29.98"   Gusts: NA
Location:  27.95°N, 82.46°W
Report Text: KTPA 230553Z 05007KT 10SM SCT240 19/14 A2998 RMK AO2 SLP153 T01940144 10233 20194 58001
Loading
Personal Weather Stations






























Interactive Weather Map New forecast layout! Learn more

10-Day Weather Forecast

Advertisements
Track Severe Weather on mobile